sensor_id;sensor_type;location;lat;lon;timestamp;P1;durP1;ratioP1;P2;durP2;ratioP2
32697;SDS011;19087;51.062;3.754;2022-11-20T00:01:25;85.25;;;41.67;;
32697;SDS011;19087;51.062;3.754;2022-11-20T00:03:52;77.60;;;40.83;;
32697;SDS011;19087;51.062;3.754;2022-11-20T00:06:26;77.22;;;40.35;;
32697;SDS011;19087;51.062;3.754;2022-11-20T00:08:54;76.85;;;39.15;;
32697;SDS011;19087;51.062;3.754;2022-11-20T00:11:22;83.32;;;42.45;;
32697;SDS011;19087;51.062;3.754;2022-11-20T00:13:52;75.22;;;40.17;;
32697;SDS011;19087;51.062;3.754;2022-11-20T00:18:52;68.05;;;39.47;;
32697;SDS011;19087;51.062;3.754;2022-11-20T00:21:19;75.85;;;40.33;;
32697;SDS011;19087;51.062;3.754;2022-11-20T00:23:49;77.13;;;39.25;;
32697;SDS011;19087;51.062;3.754;2022-11-20T00:26:18;73.18;;;39.38;;
32697;SDS011;19087;51.062;3.754;2022-11-20T00:28:49;73.32;;;38.50;;
32697;SDS011;19087;51.062;3.754;2022-11-20T00:31:19;72.97;;;37.83;;
32697;SDS011;19087;51.062;3.754;2022-11-20T00:33:45;77.50;;;40.83;;
32697;SDS011;19087;51.062;3.754;2022-11-20T00:36:18;71.25;;;39.95;;
32697;SDS011;19087;51.062;3.754;2022-11-20T00:38:52;79.22;;;39.97;;
32697;SDS011;19087;51.062;3.754;2022-11-20T00:41:22;74.07;;;38.97;;
32697;SDS011;19087;51.062;3.754;2022-11-20T00:43:52;72.45;;;38.03;;
32697;SDS011;19087;51.062;3.754;2022-11-20T00:46:23;74.03;;;39.08;;
32697;SDS011;19087;51.062;3.754;2022-11-20T00:48:53;72.63;;;37.95;;
32697;SDS011;19087;51.062;3.754;2022-11-20T00:51:20;73.03;;;38.40;;
32697;SDS011;19087;51.062;3.754;2022-11-20T00:53:50;79.28;;;40.20;;
32697;SDS011;19087;51.062;3.754;2022-11-20T00:56:17;78.15;;;39.58;;
32697;SDS011;19087;51.062;3.754;2022-11-20T00:58:44;74.35;;;39.47;;
32697;SDS011;19087;51.062;3.754;2022-11-20T01:01:14;71.90;;;38.70;;
32697;SDS011;19087;51.062;3.754;2022-11-20T01:03:42;76.38;;;38.15;;
32697;SDS011;19087;51.062;3.754;2022-11-20T01:06:12;78.10;;;41.47;;
32697;SDS011;19087;51.062;3.754;2022-11-20T01:08:43;75.22;;;38.70;;
32697;SDS011;19087;51.062;3.754;2022-11-20T01:11:15;70.38;;;37.15;;
32697;SDS011;19087;51.062;3.754;2022-11-20T01:13:47;83.43;;;40.83;;
32697;SDS011;19087;51.062;3.754;2022-11-20T01:16:18;79.53;;;41.53;;
32697;SDS011;19087;51.062;3.754;2022-11-20T01:18:52;87.13;;;41.50;;
32697;SDS011;19087;51.062;3.754;2022-11-20T01:21:21;87.32;;;41.00;;
32697;SDS011;19087;51.062;3.754;2022-11-20T01:23:54;91.18;;;41.70;;
32697;SDS011;19087;51.062;3.754;2022-11-20T01:26:24;82.07;;;42.65;;
32697;SDS011;19087;51.062;3.754;2022-11-20T01:28:52;85.53;;;44.15;;
32697;SDS011;19087;51.062;3.754;2022-11-20T01:33:47;94.55;;;41.13;;
32697;SDS011;19087;51.062;3.754;2022-11-20T01:36:18;78.90;;;40.88;;
32697;SDS011;19087;51.062;3.754;2022-11-20T01:38:51;77.45;;;39.63;;
32697;SDS011;19087;51.062;3.754;2022-11-20T01:44:16;82.07;;;39.08;;
32697;SDS011;19087;51.062;3.754;2022-11-20T01:46:57;84.22;;;40.95;;
32697;SDS011;19087;51.062;3.754;2022-11-20T01:49:41;81.68;;;40.47;;
32697;SDS011;19087;51.062;3.754;2022-11-20T01:52:22;85.00;;;41.35;;
32697;SDS011;19087;51.062;3.754;2022-11-20T01:55:09;86.43;;;41.90;;
32697;SDS011;19087;51.062;3.754;2022-11-20T02:00:10;75.40;;;40.22;;
32697;SDS011;19087;51.062;3.754;2022-11-20T02:02:39;91.38;;;43.30;;
32697;SDS011;19087;51.062;3.754;2022-11-20T02:07:58;73.35;;;39.80;;
32697;SDS011;19087;51.062;3.754;2022-11-20T02:12:54;82.03;;;39.45;;
32697;SDS011;19087;51.062;3.754;2022-11-20T02:18:09;73.32;;;38.22;;
32697;SDS011;19087;51.062;3.754;2022-11-20T02:25:48;65.95;;;37.47;;
32697;SDS011;19087;51.062;3.754;2022-11-20T02:28:17;74.82;;;38.72;;
32697;SDS011;19087;51.062;3.754;2022-11-20T02:30:43;73.65;;;39.38;;
32697;SDS011;19087;51.062;3.754;2022-11-20T02:33:12;66.63;;;36.47;;
32697;SDS011;19087;51.062;3.754;2022-11-20T02:35:42;81.68;;;38.83;;
32697;SDS011;19087;51.062;3.754;2022-11-20T02:38:10;66.20;;;37.10;;
32697;SDS011;19087;51.062;3.754;2022-11-20T02:40:39;74.18;;;37.90;;
32697;SDS011;19087;51.062;3.754;2022-11-20T02:43:07;73.03;;;39.97;;
32697;SDS011;19087;51.062;3.754;2022-11-20T02:48:03;75.78;;;40.70;;
32697;SDS011;19087;51.062;3.754;2022-11-20T02:50:32;75.70;;;39.80;;
32697;SDS011;19087;51.062;3.754;2022-11-20T02:52:58;80.78;;;40.70;;
32697;SDS011;19087;51.062;3.754;2022-11-20T02:58:00;74.57;;;38.83;;
32697;SDS011;19087;51.062;3.754;2022-11-20T03:00:32;71.60;;;38.30;;
32697;SDS011;19087;51.062;3.754;2022-11-20T03:02:57;67.80;;;37.92;;
32697;SDS011;19087;51.062;3.754;2022-11-20T03:05:23;70.78;;;39.78;;
32697;SDS011;19087;51.062;3.754;2022-11-20T03:07:56;83.68;;;38.85;;
32697;SDS011;19087;51.062;3.754;2022-11-20T03:10:23;82.30;;;39.70;;
32697;SDS011;19087;51.062;3.754;2022-11-20T03:12:55;73.15;;;38.97;;
32697;SDS011;19087;51.062;3.754;2022-11-20T03:15:27;80.20;;;37.20;;
32697;SDS011;19087;51.062;3.754;2022-11-20T03:20:26;82.18;;;40.88;;
32697;SDS011;19087;51.062;3.754;2022-11-20T03:22:55;77.22;;;42.33;;
32697;SDS011;19087;51.062;3.754;2022-11-20T03:25:21;79.70;;;39.47;;
32697;SDS011;19087;51.062;3.754;2022-11-20T03:30:17;80.20;;;41.00;;
32697;SDS011;19087;51.062;3.754;2022-11-20T03:32:55;75.22;;;40.70;;
32697;SDS011;19087;51.062;3.754;2022-11-20T03:37:49;66.57;;;37.83;;
32697;SDS011;19087;51.062;3.754;2022-11-20T03:40:21;69.25;;;39.50;;
32697;SDS011;19087;51.062;3.754;2022-11-20T03:42:49;80.60;;;37.45;;
32697;SDS011;19087;51.062;3.754;2022-11-20T03:45:16;73.50;;;40.42;;
32697;SDS011;19087;51.062;3.754;2022-11-20T03:47:44;63.80;;;36.08;;
32697;SDS011;19087;51.062;3.754;2022-11-20T03:50:12;68.43;;;37.13;;
32697;SDS011;19087;51.062;3.754;2022-11-20T03:52:41;67.88;;;37.22;;
32697;SDS011;19087;51.062;3.754;2022-11-20T03:55:08;68.82;;;38.40;;
32697;SDS011;19087;51.062;3.754;2022-11-20T03:57:37;64.53;;;37.00;;
32697;SDS011;19087;51.062;3.754;2022-11-20T04:02:35;63.70;;;36.42;;
32697;SDS011;19087;51.062;3.754;2022-11-20T04:05:03;67.80;;;36.90;;
32697;SDS011;19087;51.062;3.754;2022-11-20T04:07:29;65.28;;;37.25;;
32697;SDS011;19087;51.062;3.754;2022-11-20T04:12:27;62.53;;;36.72;;
32697;SDS011;19087;51.062;3.754;2022-11-20T04:15:04;70.10;;;36.25;;
32697;SDS011;19087;51.062;3.754;2022-11-20T04:17:31;67.35;;;36.80;;
32697;SDS011;19087;51.062;3.754;2022-11-20T04:20:00;62.45;;;36.85;;
32697;SDS011;19087;51.062;3.754;2022-11-20T04:22:26;72.88;;;38.50;;
32697;SDS011;19087;51.062;3.754;2022-11-20T04:24:54;68.97;;;38.72;;
32697;SDS011;19087;51.062;3.754;2022-11-20T04:27:20;71.20;;;37.28;;
32697;SDS011;19087;51.062;3.754;2022-11-20T04:29:47;67.50;;;36.63;;
32697;SDS011;19087;51.062;3.754;2022-11-20T04:32:13;59.38;;;34.63;;
32697;SDS011;19087;51.062;3.754;2022-11-20T04:34:39;62.05;;;35.45;;
32697;SDS011;19087;51.062;3.754;2022-11-20T04:37:05;66.22;;;36.58;;
32697;SDS011;19087;51.062;3.754;2022-11-20T04:39:31;69.30;;;35.08;;
32697;SDS011;19087;51.062;3.754;2022-11-20T04:41:57;72.03;;;35.92;;
32697;SDS011;19087;51.062;3.754;2022-11-20T04:44:41;66.13;;;34.30;;
32697;SDS011;19087;51.062;3.754;2022-11-20T04:47:06;63.58;;;36.90;;
32697;SDS011;19087;51.062;3.754;2022-11-20T04:49:32;64.70;;;35.17;;
32697;SDS011;19087;51.062;3.754;2022-11-20T04:51:58;59.38;;;35.53;;
32697;SDS011;19087;51.062;3.754;2022-11-20T04:54:24;70.07;;;38.63;;
32697;SDS011;19087;51.062;3.754;2022-11-20T04:56:50;64.47;;;34.95;;
32697;SDS011;19087;51.062;3.754;2022-11-20T04:59:17;68.32;;;36.45;;
32697;SDS011;19087;51.062;3.754;2022-11-20T05:01:44;58.65;;;33.28;;
32697;SDS011;19087;51.062;3.754;2022-11-20T05:04:13;62.28;;;35.22;;
32697;SDS011;19087;51.062;3.754;2022-11-20T05:06:39;60.30;;;34.55;;
32697;SDS011;19087;51.062;3.754;2022-11-20T05:09:04;57.97;;;33.78;;
32697;SDS011;19087;51.062;3.754;2022-11-20T05:11:31;67.28;;;34.55;;
32697;SDS011;19087;51.062;3.754;2022-11-20T05:13:58;62.38;;;35.30;;
32697;SDS011;19087;51.062;3.754;2022-11-20T05:16:24;64.03;;;34.28;;
32697;SDS011;19087;51.062;3.754;2022-11-20T05:18:52;68.25;;;36.75;;
32697;SDS011;19087;51.062;3.754;2022-11-20T05:21:19;83.03;;;39.28;;
32697;SDS011;19087;51.062;3.754;2022-11-20T05:23:45;69.68;;;37.03;;
32697;SDS011;19087;51.062;3.754;2022-11-20T05:26:22;72.03;;;37.30;;
32697;SDS011;19087;51.062;3.754;2022-11-20T05:28:50;70.97;;;39.05;;
32697;SDS011;19087;51.062;3.754;2022-11-20T05:31:17;76.18;;;37.47;;
32697;SDS011;19087;51.062;3.754;2022-11-20T05:33:48;71.47;;;36.75;;
32697;SDS011;19087;51.062;3.754;2022-11-20T05:36:14;77.43;;;37.63;;
32697;SDS011;19087;51.062;3.754;2022-11-20T05:38:41;72.57;;;37.25;;
32697;SDS011;19087;51.062;3.754;2022-11-20T05:41:14;75.70;;;38.78;;
32697;SDS011;19087;51.062;3.754;2022-11-20T05:43:43;83.78;;;37.25;;
32697;SDS011;19087;51.062;3.754;2022-11-20T05:46:12;85.07;;;39.85;;
32697;SDS011;19087;51.062;3.754;2022-11-20T05:48:39;78.90;;;36.95;;
32697;SDS011;19087;51.062;3.754;2022-11-20T05:51:09;78.97;;;39.75;;
32697;SDS011;19087;51.062;3.754;2022-11-20T05:53:36;80.63;;;40.00;;
32697;SDS011;19087;51.062;3.754;2022-11-20T05:56:13;85.75;;;40.13;;
32697;SDS011;19087;51.062;3.754;2022-11-20T05:58:43;89.75;;;41.53;;
32697;SDS011;19087;51.062;3.754;2022-11-20T06:01:13;84.70;;;39.47;;
32697;SDS011;19087;51.062;3.754;2022-11-20T06:03:42;92.88;;;40.97;;
32697;SDS011;19087;51.062;3.754;2022-11-20T06:06:14;95.38;;;41.08;;
32697;SDS011;19087;51.062;3.754;2022-11-20T06:08:46;91.32;;;41.38;;
32697;SDS011;19087;51.062;3.754;2022-11-20T06:11:12;92.95;;;43.30;;
32697;SDS011;19087;51.062;3.754;2022-11-20T06:13:41;91.78;;;40.65;;
32697;SDS011;19087;51.062;3.754;2022-11-20T06:16:11;85.03;;;41.38;;
32697;SDS011;19087;51.062;3.754;2022-11-20T06:18:41;93.38;;;43.08;;
32697;SDS011;19087;51.062;3.754;2022-11-20T06:21:17;89.05;;;41.47;;
32697;SDS011;19087;51.062;3.754;2022-11-20T06:23:49;97.05;;;43.33;;
32697;SDS011;19087;51.062;3.754;2022-11-20T06:26:17;96.15;;;42.75;;
32697;SDS011;19087;51.062;3.754;2022-11-20T06:28:45;86.63;;;40.38;;
32697;SDS011;19087;51.062;3.754;2022-11-20T06:31:12;90.63;;;41.53;;
32697;SDS011;19087;51.062;3.754;2022-11-20T06:33:40;91.07;;;42.30;;
32697;SDS011;19087;51.062;3.754;2022-11-20T06:36:10;96.68;;;42.15;;
32697;SDS011;19087;51.062;3.754;2022-11-20T06:38:39;85.82;;;42.35;;
32697;SDS011;19087;51.062;3.754;2022-11-20T06:41:10;77.15;;;38.60;;
32697;SDS011;19087;51.062;3.754;2022-11-20T06:43:49;77.28;;;38.05;;
32697;SDS011;19087;51.062;3.754;2022-11-20T06:46:15;83.47;;;39.42;;
32697;SDS011;19087;51.062;3.754;2022-11-20T06:48:51;79.47;;;39.00;;
32697;SDS011;19087;51.062;3.754;2022-11-20T06:51:17;82.20;;;39.03;;
32697;SDS011;19087;51.062;3.754;2022-11-20T06:53:43;81.95;;;39.58;;
32697;SDS011;19087;51.062;3.754;2022-11-20T06:56:09;81.22;;;40.13;;
32697;SDS011;19087;51.062;3.754;2022-11-20T06:58:36;72.63;;;37.58;;
32697;SDS011;19087;51.062;3.754;2022-11-20T07:03:32;85.57;;;40.03;;
32697;SDS011;19087;51.062;3.754;2022-11-20T07:05:58;76.82;;;39.05;;
32697;SDS011;19087;51.062;3.754;2022-11-20T07:08:28;82.13;;;38.88;;
32697;SDS011;19087;51.062;3.754;2022-11-20T07:10:56;82.68;;;39.05;;
32697;SDS011;19087;51.062;3.754;2022-11-20T07:13:28;81.75;;;38.88;;
32697;SDS011;19087;51.062;3.754;2022-11-20T07:15:55;73.93;;;37.60;;
32697;SDS011;19087;51.062;3.754;2022-11-20T07:18:28;81.68;;;38.95;;
32697;SDS011;19087;51.062;3.754;2022-11-20T07:20:54;75.65;;;38.90;;
32697;SDS011;19087;51.062;3.754;2022-11-20T07:23:20;76.07;;;39.17;;
32697;SDS011;19087;51.062;3.754;2022-11-20T07:25:47;74.63;;;37.63;;
32697;SDS011;19087;51.062;3.754;2022-11-20T07:28:15;77.57;;;38.80;;
32697;SDS011;19087;51.062;3.754;2022-11-20T07:33:17;77.85;;;38.10;;
32697;SDS011;19087;51.062;3.754;2022-11-20T07:35:43;71.07;;;36.10;;
32697;SDS011;19087;51.062;3.754;2022-11-20T07:38:09;73.55;;;37.92;;
32697;SDS011;19087;51.062;3.754;2022-11-20T07:40:36;71.30;;;37.00;;
32697;SDS011;19087;51.062;3.754;2022-11-20T07:43:03;78.00;;;37.13;;
32697;SDS011;19087;51.062;3.754;2022-11-20T07:45:31;71.95;;;37.22;;
32697;SDS011;19087;51.062;3.754;2022-11-20T07:47:57;75.25;;;35.65;;
32697;SDS011;19087;51.062;3.754;2022-11-20T07:50:23;74.55;;;37.47;;
32697;SDS011;19087;51.062;3.754;2022-11-20T07:53:00;73.43;;;37.55;;
32697;SDS011;19087;51.062;3.754;2022-11-20T07:55:35;75.00;;;35.80;;
32697;SDS011;19087;51.062;3.754;2022-11-20T07:58:03;76.05;;;36.55;;
32697;SDS011;19087;51.062;3.754;2022-11-20T08:00:30;72.75;;;37.00;;
32697;SDS011;19087;51.062;3.754;2022-11-20T08:02:55;73.90;;;35.28;;
32697;SDS011;19087;51.062;3.754;2022-11-20T08:07:51;66.78;;;33.13;;
32697;SDS011;19087;51.062;3.754;2022-11-20T08:10:19;70.63;;;34.67;;
32697;SDS011;19087;51.062;3.754;2022-11-20T08:12:46;72.30;;;37.40;;
32697;SDS011;19087;51.062;3.754;2022-11-20T08:15:34;70.75;;;36.08;;
32697;SDS011;19087;51.062;3.754;2022-11-20T08:18:10;72.43;;;36.72;;
32697;SDS011;19087;51.062;3.754;2022-11-20T08:20:37;76.20;;;35.35;;
32697;SDS011;19087;51.062;3.754;2022-11-20T08:25:37;69.25;;;32.90;;
32697;SDS011;19087;51.062;3.754;2022-11-20T08:28:07;78.38;;;35.85;;
32697;SDS011;19087;51.062;3.754;2022-11-20T08:30:34;64.70;;;33.25;;
32697;SDS011;19087;51.062;3.754;2022-11-20T08:33:08;81.90;;;39.60;;
32697;SDS011;19087;51.062;3.754;2022-11-20T08:35:35;72.18;;;34.35;;
32697;SDS011;19087;51.062;3.754;2022-11-20T08:38:03;75.22;;;34.72;;
32697;SDS011;19087;51.062;3.754;2022-11-20T08:40:29;63.30;;;32.95;;
32697;SDS011;19087;51.062;3.754;2022-11-20T08:42:56;61.35;;;33.45;;
32697;SDS011;19087;51.062;3.754;2022-11-20T08:45:21;79.15;;;35.63;;
32697;SDS011;19087;51.062;3.754;2022-11-20T08:47:48;67.22;;;34.83;;
32697;SDS011;19087;51.062;3.754;2022-11-20T08:50:15;67.78;;;33.03;;
32697;SDS011;19087;51.062;3.754;2022-11-20T08:52:42;67.22;;;31.95;;
32697;SDS011;19087;51.062;3.754;2022-11-20T08:55:10;70.10;;;33.15;;
32697;SDS011;19087;51.062;3.754;2022-11-20T08:57:51;70.20;;;32.58;;
32697;SDS011;19087;51.062;3.754;2022-11-20T09:00:23;68.47;;;31.67;;
32697;SDS011;19087;51.062;3.754;2022-11-20T09:02:49;71.97;;;32.88;;
32697;SDS011;19087;51.062;3.754;2022-11-20T09:05:15;71.25;;;32.20;;
32697;SDS011;19087;51.062;3.754;2022-11-20T09:07:41;77.53;;;33.83;;
32697;SDS011;19087;51.062;3.754;2022-11-20T09:10:10;68.00;;;31.33;;
32697;SDS011;19087;51.062;3.754;2022-11-20T09:12:35;67.40;;;32.15;;
32697;SDS011;19087;51.062;3.754;2022-11-20T09:15:01;63.28;;;31.02;;
32697;SDS011;19087;51.062;3.754;2022-11-20T09:17:36;59.97;;;30.95;;
32697;SDS011;19087;51.062;3.754;2022-11-20T09:22:32;56.55;;;29.80;;
32697;SDS011;19087;51.062;3.754;2022-11-20T09:25:00;53.35;;;29.55;;
32697;SDS011;19087;51.062;3.754;2022-11-20T09:27:26;59.03;;;28.88;;
32697;SDS011;19087;51.062;3.754;2022-11-20T09:29:53;56.65;;;30.10;;
32697;SDS011;19087;51.062;3.754;2022-11-20T09:32:19;52.08;;;25.98;;
32697;SDS011;19087;51.062;3.754;2022-11-20T09:34:48;48.85;;;27.08;;
32697;SDS011;19087;51.062;3.754;2022-11-20T09:37:14;51.65;;;27.48;;
32697;SDS011;19087;51.062;3.754;2022-11-20T09:39:39;52.58;;;27.60;;
32697;SDS011;19087;51.062;3.754;2022-11-20T09:45:05;46.17;;;25.88;;
32697;SDS011;19087;51.062;3.754;2022-11-20T09:50:45;43.92;;;23.33;;
32697;SDS011;19087;51.062;3.754;2022-11-20T09:56:29;38.38;;;22.02;;
32697;SDS011;19087;51.062;3.754;2022-11-20T09:58:59;37.45;;;21.17;;
32697;SDS011;19087;51.062;3.754;2022-11-20T10:01:31;33.75;;;20.65;;
32697;SDS011;19087;51.062;3.754;2022-11-20T10:04:02;32.60;;;19.65;;
32697;SDS011;19087;51.062;3.754;2022-11-20T10:06:36;33.33;;;20.00;;
32697;SDS011;19087;51.062;3.754;2022-11-20T10:09:14;33.22;;;19.65;;
32697;SDS011;19087;51.062;3.754;2022-11-20T10:14:38;34.50;;;20.30;;
32697;SDS011;19087;51.062;3.754;2022-11-20T10:31:16;32.08;;;16.02;;
32697;SDS011;19087;51.062;3.754;2022-11-20T10:33:51;23.88;;;14.48;;
32697;SDS011;19087;51.062;3.754;2022-11-20T10:39:28;24.30;;;14.05;;
32697;SDS011;19087;51.062;3.754;2022-11-20T10:42:02;22.00;;;12.75;;
32697;SDS011;19087;51.062;3.754;2022-11-20T10:44:30;22.05;;;11.00;;
32697;SDS011;19087;51.062;3.754;2022-11-20T10:47:17;18.25;;;10.88;;
32697;SDS011;19087;51.062;3.754;2022-11-20T10:49:46;17.67;;;9.77;;
32697;SDS011;19087;51.062;3.754;2022-11-20T10:58:38;14.82;;;6.97;;
32697;SDS011;19087;51.062;3.754;2022-11-20T11:01:26;12.43;;;6.35;;
32697;SDS011;19087;51.062;3.754;2022-11-20T11:03:54;15.15;;;6.35;;
32697;SDS011;19087;51.062;3.754;2022-11-20T11:08:55;13.27;;;5.80;;
32697;SDS011;19087;51.062;3.754;2022-11-20T11:11:28;10.15;;;5.07;;
32697;SDS011;19087;51.062;3.754;2022-11-20T11:16:52;13.48;;;6.00;;
32697;SDS011;19087;51.062;3.754;2022-11-20T11:19:23;14.35;;;6.18;;
32697;SDS011;19087;51.062;3.754;2022-11-20T11:21:52;13.63;;;5.40;;
32697;SDS011;19087;51.062;3.754;2022-11-20T11:26:57;14.68;;;6.07;;
32697;SDS011;19087;51.062;3.754;2022-11-20T11:29:26;11.45;;;5.05;;
32697;SDS011;19087;51.062;3.754;2022-11-20T11:32:11;13.18;;;5.57;;
32697;SDS011;19087;51.062;3.754;2022-11-20T11:35:32;17.05;;;5.50;;
32697;SDS011;19087;51.062;3.754;2022-11-20T11:37:45;10.20;;;4.88;;
32697;SDS011;19087;51.062;3.754;2022-11-20T11:40:14;13.48;;;4.70;;
32697;SDS011;19087;51.062;3.754;2022-11-20T11:42:43;13.65;;;5.25;;
32697;SDS011;19087;51.062;3.754;2022-11-20T11:45:22;8.82;;;4.40;;
32697;SDS011;19087;51.062;3.754;2022-11-20T11:48:02;10.13;;;4.80;;
32697;SDS011;19087;51.062;3.754;2022-11-20T11:50:34;12.50;;;5.00;;
32697;SDS011;19087;51.062;3.754;2022-11-20T11:53:13;9.18;;;3.97;;
32697;SDS011;19087;51.062;3.754;2022-11-20T12:06:31;13.30;;;4.65;;
32697;SDS011;19087;51.062;3.754;2022-11-20T12:09:10;10.80;;;4.80;;
32697;SDS011;19087;51.062;3.754;2022-11-20T12:16:42;12.23;;;4.97;;
32697;SDS011;19087;51.062;3.754;2022-11-20T12:19:08;15.63;;;5.70;;
32697;SDS011;19087;51.062;3.754;2022-11-20T12:24:33;10.20;;;4.10;;
32697;SDS011;19087;51.062;3.754;2022-11-20T12:30:09;10.65;;;4.30;;
32697;SDS011;19087;51.062;3.754;2022-11-20T12:32:45;10.32;;;4.32;;
32697;SDS011;19087;51.062;3.754;2022-11-20T12:35:29;7.18;;;3.60;;
32697;SDS011;19087;51.062;3.754;2022-11-20T12:44:14;7.43;;;4.30;;
32697;SDS011;19087;51.062;3.754;2022-11-20T12:47:28;8.98;;;4.35;;
32697;SDS011;19087;51.062;3.754;2022-11-20T13:01:24;8.30;;;3.90;;
32697;SDS011;19087;51.062;3.754;2022-11-20T13:07:02;7.63;;;3.58;;
32697;SDS011;19087;51.062;3.754;2022-11-20T13:09:32;5.25;;;3.38;;
32697;SDS011;19087;51.062;3.754;2022-11-20T13:12:18;8.27;;;4.32;;
32697;SDS011;19087;51.062;3.754;2022-11-20T13:17:40;8.48;;;3.63;;
32697;SDS011;19087;51.062;3.754;2022-11-20T13:20:14;5.95;;;3.40;;
32697;SDS011;19087;51.062;3.754;2022-11-20T13:22:49;7.97;;;4.45;;
32697;SDS011;19087;51.062;3.754;2022-11-20T13:25:37;5.78;;;3.47;;
32697;SDS011;19087;51.062;3.754;2022-11-20T13:28:26;4.53;;;3.72;;
32697;SDS011;19087;51.062;3.754;2022-11-20T13:30:55;4.25;;;3.30;;
32697;SDS011;19087;51.062;3.754;2022-11-20T13:38:27;5.80;;;3.47;;
32697;SDS011;19087;51.062;3.754;2022-11-20T13:40:54;6.22;;;3.22;;
32697;SDS011;19087;51.062;3.754;2022-11-20T13:43:33;4.00;;;3.13;;
32697;SDS011;19087;51.062;3.754;2022-11-20T13:46:03;5.97;;;3.13;;
32697;SDS011;19087;51.062;3.754;2022-11-20T13:53:47;7.60;;;3.55;;
32697;SDS011;19087;51.062;3.754;2022-11-20T14:02:15;6.32;;;3.72;;
32697;SDS011;19087;51.062;3.754;2022-11-20T14:04:48;4.85;;;3.47;;
32697;SDS011;19087;51.062;3.754;2022-11-20T14:07:20;4.50;;;3.17;;
32697;SDS011;19087;51.062;3.754;2022-11-20T14:09:51;5.07;;;2.78;;
32697;SDS011;19087;51.062;3.754;2022-11-20T14:12:22;7.18;;;3.22;;
32697;SDS011;19087;51.062;3.754;2022-11-20T14:14:53;5.13;;;3.15;;
32697;SDS011;19087;51.062;3.754;2022-11-20T14:17:29;4.47;;;2.40;;
32697;SDS011;19087;51.062;3.754;2022-11-20T14:20:01;4.93;;;2.50;;
32697;SDS011;19087;51.062;3.754;2022-11-20T14:22:30;5.53;;;2.60;;
32697;SDS011;19087;51.062;3.754;2022-11-20T14:27:38;5.43;;;3.42;;
32697;SDS011;19087;51.062;3.754;2022-11-20T14:30:16;9.35;;;4.63;;
32697;SDS011;19087;51.062;3.754;2022-11-20T14:32:44;7.30;;;4.28;;
32697;SDS011;19087;51.062;3.754;2022-11-20T14:35:19;8.40;;;6.55;;
32697;SDS011;19087;51.062;3.754;2022-11-20T14:37:56;7.15;;;6.40;;
32697;SDS011;19087;51.062;3.754;2022-11-20T14:40:27;4.80;;;2.80;;
32697;SDS011;19087;51.062;3.754;2022-11-20T14:42:55;6.10;;;3.53;;
32697;SDS011;19087;51.062;3.754;2022-11-20T14:45:23;6.50;;;4.30;;
32697;SDS011;19087;51.062;3.754;2022-11-20T14:47:51;8.43;;;3.65;;
32697;SDS011;19087;51.062;3.754;2022-11-20T14:50:27;8.77;;;3.33;;
32697;SDS011;19087;51.062;3.754;2022-11-20T14:52:55;5.25;;;3.28;;
32697;SDS011;19087;51.062;3.754;2022-11-20T14:55:31;7.68;;;3.40;;
32697;SDS011;19087;51.062;3.754;2022-11-20T14:58:03;9.85;;;4.15;;
32697;SDS011;19087;51.062;3.754;2022-11-20T15:00:32;13.60;;;4.63;;
32697;SDS011;19087;51.062;3.754;2022-11-20T15:03:01;8.65;;;3.33;;
32697;SDS011;19087;51.062;3.754;2022-11-20T15:05:48;10.40;;;4.20;;
32697;SDS011;19087;51.062;3.754;2022-11-20T15:08:15;22.02;;;4.25;;
32697;SDS011;19087;51.062;3.754;2022-11-20T15:10:51;20.65;;;5.15;;
32697;SDS011;19087;51.062;3.754;2022-11-20T15:13:31;13.13;;;4.85;;
32697;SDS011;19087;51.062;3.754;2022-11-20T15:16:00;17.45;;;4.63;;
32697;SDS011;19087;51.062;3.754;2022-11-20T15:18:38;13.35;;;3.85;;
32697;SDS011;19087;51.062;3.754;2022-11-20T15:21:11;16.52;;;3.53;;
32697;SDS011;19087;51.062;3.754;2022-11-20T15:23:38;14.02;;;3.40;;
32697;SDS011;19087;51.062;3.754;2022-11-20T15:26:04;27.00;;;4.68;;
32697;SDS011;19087;51.062;3.754;2022-11-20T15:28:33;25.20;;;4.93;;
32697;SDS011;19087;51.062;3.754;2022-11-20T15:31:04;16.00;;;3.70;;
32697;SDS011;19087;51.062;3.754;2022-11-20T15:33:30;23.15;;;3.80;;
32697;SDS011;19087;51.062;3.754;2022-11-20T15:36:00;20.48;;;3.65;;
32697;SDS011;19087;51.062;3.754;2022-11-20T15:38:25;23.23;;;4.65;;
32697;SDS011;19087;51.062;3.754;2022-11-20T15:40:51;23.63;;;4.63;;
32697;SDS011;19087;51.062;3.754;2022-11-20T15:43:17;28.10;;;4.85;;
32697;SDS011;19087;51.062;3.754;2022-11-20T15:48:19;24.83;;;4.75;;
32697;SDS011;19087;51.062;3.754;2022-11-20T15:53:35;29.30;;;5.43;;
32697;SDS011;19087;51.062;3.754;2022-11-20T15:56:05;17.35;;;5.05;;
32697;SDS011;19087;51.062;3.754;2022-11-20T15:58:31;23.52;;;5.93;;
32697;SDS011;19087;51.062;3.754;2022-11-20T16:00:57;30.00;;;5.55;;
32697;SDS011;19087;51.062;3.754;2022-11-20T16:03:23;28.10;;;5.57;;
32697;SDS011;19087;51.062;3.754;2022-11-20T16:05:49;29.27;;;6.30;;
32697;SDS011;19087;51.062;3.754;2022-11-20T16:08:15;24.92;;;5.72;;
32697;SDS011;19087;51.062;3.754;2022-11-20T16:10:41;24.38;;;5.28;;
32697;SDS011;19087;51.062;3.754;2022-11-20T16:13:13;31.15;;;5.35;;
32697;SDS011;19087;51.062;3.754;2022-11-20T16:16:00;19.08;;;4.35;;
32697;SDS011;19087;51.062;3.754;2022-11-20T16:18:32;19.80;;;4.47;;
32697;SDS011;19087;51.062;3.754;2022-11-20T16:20:58;12.77;;;3.33;;
32697;SDS011;19087;51.062;3.754;2022-11-20T16:23:23;14.68;;;3.17;;
32697;SDS011;19087;51.062;3.754;2022-11-20T16:25:49;23.50;;;4.18;;
32697;SDS011;19087;51.062;3.754;2022-11-20T16:28:21;18.80;;;3.85;;
32697;SDS011;19087;51.062;3.754;2022-11-20T16:33:16;25.80;;;5.57;;
32697;SDS011;19087;51.062;3.754;2022-11-20T16:35:42;24.50;;;6.10;;
32697;SDS011;19087;51.062;3.754;2022-11-20T16:38:08;25.02;;;6.78;;
32697;SDS011;19087;51.062;3.754;2022-11-20T16:40:34;24.23;;;5.85;;
32697;SDS011;19087;51.062;3.754;2022-11-20T16:43:10;25.02;;;5.57;;
32697;SDS011;19087;51.062;3.754;2022-11-20T16:45:41;28.13;;;5.70;;
32697;SDS011;19087;51.062;3.754;2022-11-20T16:48:15;23.15;;;5.35;;
32697;SDS011;19087;51.062;3.754;2022-11-20T16:50:48;26.15;;;6.60;;
32697;SDS011;19087;51.062;3.754;2022-11-20T16:53:17;23.90;;;5.10;;
32697;SDS011;19087;51.062;3.754;2022-11-20T16:55:43;24.63;;;5.00;;
32697;SDS011;19087;51.062;3.754;2022-11-20T16:58:09;22.42;;;5.40;;
32697;SDS011;19087;51.062;3.754;2022-11-20T17:00:35;18.25;;;5.13;;
32697;SDS011;19087;51.062;3.754;2022-11-20T17:03:02;22.90;;;6.55;;
32697;SDS011;19087;51.062;3.754;2022-11-20T17:05:29;33.03;;;6.03;;
32697;SDS011;19087;51.062;3.754;2022-11-20T17:07:55;22.52;;;6.25;;
32697;SDS011;19087;51.062;3.754;2022-11-20T17:10:21;26.55;;;6.65;;
32697;SDS011;19087;51.062;3.754;2022-11-20T17:12:47;23.95;;;7.15;;
32697;SDS011;19087;51.062;3.754;2022-11-20T17:15:12;25.30;;;5.60;;
32697;SDS011;19087;51.062;3.754;2022-11-20T17:17:38;31.45;;;10.05;;
32697;SDS011;19087;51.062;3.754;2022-11-20T17:20:04;24.88;;;7.57;;
32697;SDS011;19087;51.062;3.754;2022-11-20T17:22:30;21.50;;;5.68;;
32697;SDS011;19087;51.062;3.754;2022-11-20T17:24:56;23.27;;;5.22;;
32697;SDS011;19087;51.062;3.754;2022-11-20T17:27:22;23.50;;;5.45;;
32697;SDS011;19087;51.062;3.754;2022-11-20T17:29:48;34.05;;;5.13;;
32697;SDS011;19087;51.062;3.754;2022-11-20T17:32:13;34.65;;;6.10;;
32697;SDS011;19087;51.062;3.754;2022-11-20T17:34:39;27.42;;;6.65;;